createdAt,value
2017-02-15T00:00:44.718Z,21.14
2017-02-15T00:01:45.000Z,21.16
2017-02-15T00:02:45.238Z,21.16
2017-02-15T00:03:44.853Z,21.1
2017-02-15T00:04:44.428Z,21.1
2017-02-15T00:05:44.845Z,21.13
2017-02-15T00:06:45.177Z,21.13
2017-02-15T00:07:44.996Z,21.12
2017-02-15T00:08:45.303Z,21.04
2017-02-15T00:09:45.463Z,21.06
2017-02-15T00:10:44.991Z,21.06
2017-02-15T00:11:44.853Z,20.99
2017-02-15T00:12:45.105Z,21.06
2017-02-15T00:13:44.686Z,21.04
2017-02-15T00:14:44.696Z,21.03
2017-02-15T00:15:45.902Z,20.99
2017-02-15T00:16:45.016Z,21.03
2017-02-15T00:17:45.833Z,20.99
2017-02-15T00:18:45.209Z,20.92
2017-02-15T00:19:45.234Z,20.99
2017-02-15T00:20:44.861Z,20.95
2017-02-15T00:21:45.452Z,20.97
2017-02-15T00:22:45.334Z,21.01
2017-02-15T00:23:44.948Z,20.94
2017-02-15T00:24:44.620Z,20.97
2017-02-15T00:25:45.356Z,20.94
2017-02-15T00:26:46.164Z,20.92
2017-02-15T00:27:45.023Z,20.99
2017-02-15T00:28:45.080Z,20.84
2017-02-15T00:29:45.978Z,20.95
2017-02-15T00:30:45.132Z,20.92
2017-02-15T00:31:45.148Z,20.84
2017-02-15T00:32:46.481Z,20.88
2017-02-15T00:33:46.468Z,20.87
2017-02-15T00:34:46.477Z,20.92
2017-02-15T00:35:46.547Z,20.88
2017-02-15T00:36:46.201Z,20.82
2017-02-15T00:37:45.718Z,20.88
2017-02-15T00:38:45.329Z,20.88
2017-02-15T00:39:46.063Z,20.84
2017-02-15T00:40:45.791Z,20.87
2017-02-15T00:41:45.428Z,20.88
2017-02-15T00:42:46.005Z,20.88
2017-02-15T00:43:45.112Z,20.82
2017-02-15T00:44:45.917Z,20.85
2017-02-15T00:45:45.959Z,20.84
2017-02-15T00:46:45.539Z,20.77
2017-02-15T00:47:45.563Z,20.82
2017-02-15T00:48:46.783Z,20.7
2017-02-15T00:49:46.277Z,20.79
2017-02-15T00:50:46.429Z,20.7
2017-02-15T00:51:45.687Z,20.74
2017-02-15T00:52:45.307Z,20.74
2017-02-15T00:53:45.844Z,20.69
2017-02-15T00:54:45.751Z,20.74
2017-02-15T00:55:46.190Z,20.67
2017-02-15T00:56:46.239Z,20.73
2017-02-15T00:57:46.749Z,20.72
2017-02-15T00:58:46.634Z,20.73
2017-02-15T00:59:46.289Z,20.69
2017-02-15T01:00:47.222Z,20.74
2017-02-15T01:01:46.841Z,20.61
2017-02-15T01:02:45.669Z,20.7
2017-02-15T01:03:46.463Z,20.66
2017-02-15T01:04:46.418Z,20.61
2017-02-15T01:05:46.462Z,20.64
2017-02-15T01:06:46.485Z,20.76
2017-02-15T01:07:46.153Z,20.73
2017-02-15T01:08:46.000Z,20.67
2017-02-15T01:09:46.558Z,20.64
2017-02-15T01:10:46.367Z,20.72
2017-02-15T01:11:45.839Z,20.66
2017-02-15T01:12:46.644Z,20.59
2017-02-15T01:13:46.902Z,20.66
2017-02-15T01:14:46.372Z,20.67
2017-02-15T01:15:46.714Z,20.61
2017-02-15T01:16:46.350Z,20.66
2017-02-15T01:17:46.363Z,20.61
2017-02-15T01:18:47.019Z,20.64
2017-02-15T01:19:47.772Z,20.64
2017-02-15T01:20:46.851Z,20.66
2017-02-15T01:21:47.266Z,20.64
2017-02-15T01:22:46.955Z,20.58
2017-02-15T01:23:46.515Z,20.61
2017-02-15T01:24:47.566Z,20.55
2017-02-15T01:25:47.531Z,20.64
2017-02-15T01:26:47.313Z,20.58
2017-02-15T01:27:46.863Z,20.66
2017-02-15T01:28:46.282Z,20.58
2017-02-15T01:29:47.810Z,20.57
2017-02-15T01:30:46.312Z,20.57
2017-02-15T01:31:46.728Z,20.51
2017-02-15T01:32:47.510Z,20.54
2017-02-15T01:33:47.662Z,20.51
2017-02-15T01:34:47.543Z,20.48
2017-02-15T01:35:47.261Z,20.51
2017-02-15T01:36:46.469Z,20.54
2017-02-15T01:37:47.912Z,20.51
2017-02-15T01:38:47.070Z,20.43
2017-02-15T01:39:48.185Z,20.42
2017-02-15T01:40:46.976Z,20.48
2017-02-15T01:41:47.105Z,20.52
2017-02-15T01:42:48.423Z,20.52
2017-02-15T01:43:47.457Z,20.58
2017-02-15T01:44:47.093Z,20.47
2017-02-15T01:45:47.244Z,20.54
2017-02-15T01:46:47.806Z,20.48
2017-02-15T01:47:47.428Z,20.47
2017-02-15T01:48:48.157Z,20.39
2017-02-15T01:49:48.557Z,20.39
2017-02-15T01:50:47.634Z,20.48
2017-02-15T01:51:48.537Z,20.43
2017-02-15T01:52:47.915Z,20.38
2017-02-15T01:53:48.215Z,20.41
2017-02-15T01:54:47.361Z,20.38
2017-02-15T01:55:47.773Z,20.38
2017-02-15T01:56:47.984Z,20.35
2017-02-15T01:57:47.290Z,20.32
2017-02-15T01:58:48.486Z,20.35
2017-02-15T01:59:47.490Z,20.39
2017-02-15T02:00:47.486Z,20.41
2017-02-15T02:01:47.533Z,20.39
2017-02-15T02:02:48.277Z,20.35
2017-02-15T02:03:48.446Z,20.36
2017-02-15T02:04:48.385Z,20.31
2017-02-15T02:05:48.420Z,20.26
2017-02-15T02:06:48.667Z,20.35
2017-02-15T02:07:48.351Z,20.32
2017-02-15T02:08:47.706Z,20.32
2017-02-15T02:09:48.787Z,20.29
2017-02-15T02:10:47.358Z,20.26
2017-02-15T02:11:49.033Z,20.29
2017-02-15T02:12:48.760Z,20.31
2017-02-15T02:13:47.840Z,20.28
2017-02-15T02:14:48.260Z,20.29
2017-02-15T02:15:47.752Z,20.23
2017-02-15T02:16:49.209Z,20.21
2017-02-15T02:17:49.054Z,20.23
2017-02-15T02:18:47.974Z,20.23
2017-02-15T02:19:48.009Z,20.16
2017-02-15T02:20:48.435Z,20.2
2017-02-15T02:21:49.296Z,20.16
2017-02-15T02:22:48.850Z,20.16
2017-02-15T02:23:48.841Z,20.17
2017-02-15T02:24:48.556Z,20.21
2017-02-15T02:25:48.564Z,20.17
2017-02-15T02:26:48.729Z,20.24
2017-02-15T02:27:49.279Z,20.23
2017-02-15T02:28:48.982Z,20.29
2017-02-15T02:29:48.659Z,20.2
2017-02-15T02:30:48.283Z,20.13
2017-02-15T02:31:48.445Z,20.18
2017-02-15T02:32:49.424Z,20.18
2017-02-15T02:33:49.030Z,20.21
2017-02-15T02:34:49.075Z,20.18
2017-02-15T02:35:48.820Z,20.18
2017-02-15T02:36:48.430Z,20.14
2017-02-15T02:37:50.006Z,20.13
2017-02-15T02:38:49.286Z,20.14
2017-02-15T02:39:48.918Z,20.17
2017-02-15T02:40:49.043Z,20.11
2017-02-15T02:41:49.621Z,20.02
2017-02-15T02:42:49.606Z,20.06
2017-02-15T02:43:48.631Z,20.14
2017-02-15T02:44:49.060Z,20.05
2017-02-15T02:45:49.233Z,20.03
2017-02-15T02:46:50.012Z,20.16
2017-02-15T02:47:48.736Z,20.08
2017-02-15T02:48:49.027Z,20.03
2017-02-15T02:49:50.042Z,20.06
2017-02-15T02:50:48.802Z,20.06
2017-02-15T02:51:49.683Z,20.08
2017-02-15T02:52:49.198Z,20.08
2017-02-15T02:53:50.152Z,20.06
2017-02-15T02:54:48.927Z,20.05
2017-02-15T02:55:48.940Z,20.05
2017-02-15T02:56:49.960Z,20.02
2017-02-15T02:57:48.985Z,20.03
2017-02-15T02:58:49.412Z,20.06
2017-02-15T02:59:49.223Z,20.06
2017-02-15T03:00:50.101Z,20.05
2017-02-15T03:01:50.089Z,20.1
2017-02-15T03:02:49.160Z,19.88
2017-02-15T03:03:49.551Z,20.02
2017-02-15T03:04:49.169Z,20.02
2017-02-15T03:05:49.516Z,19.96
2017-02-15T03:06:49.653Z,19.98
2017-02-15T03:07:49.248Z,19.99
2017-02-15T03:08:49.283Z,19.96
2017-02-15T03:09:49.723Z,19.94
2017-02-15T03:10:50.215Z,19.92
2017-02-15T03:11:50.226Z,19.99
2017-02-15T03:12:50.377Z,19.99
2017-02-15T03:13:49.411Z,19.99
2017-02-15T03:14:49.429Z,19.99
2017-02-15T03:15:50.102Z,19.99
2017-02-15T03:16:50.463Z,19.95
2017-02-15T03:17:50.630Z,19.98
2017-02-15T03:18:49.549Z,19.95
2017-02-15T03:19:49.565Z,19.95
2017-02-15T03:20:49.588Z,19.95
2017-02-15T03:21:50.306Z,19.96
2017-02-15T03:22:49.708Z,19.96
2017-02-15T03:23:49.706Z,19.92
2017-02-15T03:24:50.563Z,19.98
2017-02-15T03:25:50.113Z,19.96
2017-02-15T03:26:49.819Z,19.91
2017-02-15T03:27:50.416Z,19.95
2017-02-15T03:28:50.090Z,19.96
2017-02-15T03:29:49.824Z,19.99
2017-02-15T03:30:49.447Z,19.86
2017-02-15T03:31:49.867Z,19.86
2017-02-15T03:32:50.357Z,19.88
2017-02-15T03:33:50.588Z,19.99
2017-02-15T03:34:50.771Z,19.87
2017-02-15T03:35:49.971Z,19.91
2017-02-15T03:36:50.376Z,19.91
2017-02-15T03:37:50.018Z,19.91
2017-02-15T03:38:50.310Z,19.91
2017-02-15T03:39:50.485Z,19.86
2017-02-15T03:40:51.379Z,19.91
2017-02-15T03:41:51.329Z,19.87
2017-02-15T03:42:50.674Z,19.91
2017-02-15T03:43:50.840Z,19.92
2017-02-15T03:44:50.219Z,19.87
2017-02-15T03:45:50.652Z,19.84
2017-02-15T03:46:50.656Z,19.87
2017-02-15T03:47:50.646Z,19.86
2017-02-15T03:48:50.557Z,19.84
2017-02-15T03:49:50.743Z,19.91
2017-02-15T03:50:51.623Z,19.87
2017-02-15T03:51:50.393Z,19.84
2017-02-15T03:52:50.009Z,19.84
2017-02-15T03:53:51.093Z,19.84
2017-02-15T03:54:50.867Z,19.87
2017-02-15T03:55:50.952Z,19.83
2017-02-15T03:56:50.529Z,19.81
2017-02-15T03:57:51.341Z,19.87
2017-02-15T03:58:51.530Z,19.87
2017-02-15T03:59:51.011Z,19.86
2017-02-15T04:00:51.023Z,19.87
2017-02-15T04:01:51.067Z,19.88
2017-02-15T04:02:51.724Z,19.84
2017-02-15T04:03:51.397Z,19.78
2017-02-15T04:04:51.427Z,19.77
2017-02-15T04:05:51.159Z,19.83
2017-02-15T04:06:50.793Z,19.77
2017-02-15T04:07:51.478Z,19.84
2017-02-15T04:08:51.512Z,19.78
2017-02-15T04:09:50.879Z,19.76
2017-02-15T04:10:51.563Z,19.74
2017-02-15T04:11:52.100Z,19.74
2017-02-15T04:12:51.627Z,19.71
2017-02-15T04:13:51.254Z,19.74
2017-02-15T04:14:51.417Z,19.69
2017-02-15T04:15:51.632Z,19.77
2017-02-15T04:16:51.537Z,19.68
2017-02-15T04:17:51.175Z,19.77
2017-02-15T04:18:51.346Z,19.76
2017-02-15T04:19:51.526Z,19.74
2017-02-15T04:20:51.158Z,19.74
2017-02-15T04:21:51.479Z,19.73
2017-02-15T04:22:51.899Z,19.8
2017-02-15T04:23:51.885Z,19.8
2017-02-15T04:24:51.993Z,19.78
2017-02-15T04:25:51.286Z,19.69
2017-02-15T04:26:51.691Z,19.76
2017-02-15T04:27:51.965Z,19.78
2017-02-15T04:28:52.029Z,19.71
2017-02-15T04:29:52.425Z,19.69
2017-02-15T04:30:52.542Z,19.77
2017-02-15T04:31:52.205Z,19.74
2017-02-15T04:32:51.878Z,19.69
2017-02-15T04:33:51.487Z,19.73
2017-02-15T04:34:51.522Z,19.69
2017-02-15T04:35:52.639Z,19.71
2017-02-15T04:36:51.691Z,19.78
2017-02-15T04:37:51.986Z,19.76
2017-02-15T04:38:52.707Z,19.66
2017-02-15T04:39:52.207Z,19.73
2017-02-15T04:40:52.884Z,19.66
2017-02-15T04:41:52.471Z,19.66
2017-02-15T04:42:52.472Z,19.68
2017-02-15T04:43:51.972Z,19.65
2017-02-15T04:44:52.655Z,19.65
2017-02-15T04:45:51.392Z,19.73
2017-02-15T04:46:52.946Z,19.66
2017-02-15T04:47:52.868Z,19.74
2017-02-15T04:48:52.528Z,19.71
2017-02-15T04:49:52.303Z,19.68
2017-02-15T04:50:51.937Z,19.69
2017-02-15T04:51:52.421Z,19.76
2017-02-15T04:52:52.555Z,19.62
2017-02-15T04:53:51.621Z,19.66
2017-02-15T04:54:52.004Z,19.63
2017-02-15T04:55:52.779Z,19.66
2017-02-15T04:56:52.479Z,19.66
2017-02-15T04:57:52.499Z,19.66
2017-02-15T04:58:51.763Z,19.66
2017-02-15T04:59:52.564Z,19.63
2017-02-15T05:00:52.754Z,19.68
2017-02-15T05:01:53.040Z,19.62
2017-02-15T05:02:52.250Z,19.65
2017-02-15T05:03:52.647Z,19.62
2017-02-15T05:04:52.956Z,19.62
2017-02-15T05:05:53.015Z,19.65
2017-02-15T05:06:52.750Z,19.66
2017-02-15T05:07:52.774Z,19.66
2017-02-15T05:08:52.372Z,19.65
2017-02-15T05:09:53.776Z,19.65
2017-02-15T05:10:52.448Z,19.63
2017-02-15T05:11:52.887Z,19.59
2017-02-15T05:12:52.898Z,19.5
2017-02-15T05:13:52.862Z,19.61
2017-02-15T05:14:53.373Z,19.63
2017-02-15T05:15:52.936Z,19.63
2017-02-15T05:16:52.591Z,19.61
2017-02-15T05:17:53.026Z,19.63
2017-02-15T05:18:52.890Z,19.62
2017-02-15T05:19:52.935Z,19.61
2017-02-15T05:20:53.096Z,19.74
2017-02-15T05:21:53.533Z,19.73
2017-02-15T05:22:52.752Z,19.76
2017-02-15T05:23:53.535Z,19.71
2017-02-15T05:24:53.525Z,19.76
2017-02-15T05:25:52.416Z,19.84
2017-02-15T05:26:52.856Z,19.87
2017-02-15T05:27:53.388Z,19.86
2017-02-15T05:28:54.015Z,19.88
2017-02-15T05:29:53.199Z,19.95
2017-02-15T05:30:53.372Z,19.94
2017-02-15T05:31:53.417Z,19.99
2017-02-15T05:32:53.876Z,19.95
2017-02-15T05:33:53.531Z,20.02
2017-02-15T05:34:53.833Z,20.08
2017-02-15T05:35:53.080Z,20.1
2017-02-15T05:36:53.517Z,20.11
2017-02-15T05:37:53.141Z,20.05
2017-02-15T05:38:53.548Z,20.14
2017-02-15T05:39:54.279Z,20.14
2017-02-15T05:40:53.213Z,20.18
2017-02-15T05:41:53.240Z,20.21
2017-02-15T05:42:53.669Z,20.18
2017-02-15T05:43:54.031Z,20.18
2017-02-15T05:44:53.891Z,20.29
2017-02-15T05:45:53.927Z,20.23
2017-02-15T05:46:53.769Z,20.26
2017-02-15T05:47:53.405Z,20.24
2017-02-15T05:48:53.828Z,20.31
2017-02-15T05:49:54.130Z,20.35
2017-02-15T05:50:54.012Z,20.35
2017-02-15T05:51:53.910Z,20.39
2017-02-15T05:52:53.165Z,20.41
2017-02-15T05:53:53.564Z,20.51
2017-02-15T05:54:53.250Z,20.48
2017-02-15T05:55:53.999Z,20.47
2017-02-15T05:56:53.888Z,20.48
2017-02-15T05:57:53.678Z,20.61
2017-02-15T05:58:53.290Z,20.57
2017-02-15T05:59:53.770Z,20.57
2017-02-15T06:00:53.968Z,20.59
2017-02-15T06:01:54.479Z,20.62
2017-02-15T06:02:54.201Z,20.61
2017-02-15T06:03:53.809Z,20.59
2017-02-15T06:04:53.834Z,20.64
2017-02-15T06:05:54.985Z,20.61
2017-02-15T06:06:54.277Z,20.58
2017-02-15T06:07:54.465Z,20.72
2017-02-15T06:08:54.337Z,20.64
2017-02-15T06:09:53.973Z,20.7
2017-02-15T06:10:54.744Z,20.7
2017-02-15T06:11:54.244Z,20.77
2017-02-15T06:12:54.637Z,20.77
2017-02-15T06:13:54.959Z,20.8
2017-02-15T06:14:54.998Z,20.76
2017-02-15T06:15:55.010Z,20.79
2017-02-15T06:16:54.549Z,20.88
2017-02-15T06:17:54.251Z,20.88
2017-02-15T06:18:54.618Z,20.85
2017-02-15T06:19:54.817Z,20.98
2017-02-15T06:20:55.080Z,20.98
2017-02-15T06:21:54.691Z,20.94
2017-02-15T06:22:54.328Z,20.97
2017-02-15T06:23:54.729Z,20.95
2017-02-15T06:24:55.364Z,21.12
2017-02-15T06:25:54.480Z,20.95
2017-02-15T06:26:55.020Z,20.99
2017-02-15T06:27:54.846Z,21.01
2017-02-15T06:28:54.883Z,21.04
2017-02-15T06:29:54.504Z,21.04
2017-02-15T06:30:54.786Z,21.07
2017-02-15T06:31:54.946Z,21.07
2017-02-15T06:32:54.572Z,21.06
2017-02-15T06:33:54.200Z,21.04
2017-02-15T06:34:54.635Z,21.13
2017-02-15T06:35:54.910Z,21.09
2017-02-15T06:36:54.686Z,21.06
2017-02-15T06:37:54.698Z,21.14
2017-02-15T06:38:54.335Z,21.14
2017-02-15T06:39:54.357Z,21.1
2017-02-15T06:40:55.041Z,21.1
2017-02-15T06:41:54.826Z,21.16
2017-02-15T06:42:54.842Z,21.16
2017-02-15T06:43:55.291Z,21.13
2017-02-15T06:44:54.900Z,21.13
2017-02-15T06:45:55.193Z,21.14
2017-02-15T06:46:54.936Z,21.1
2017-02-15T06:47:54.990Z,21.13
2017-02-15T06:48:54.992Z,21.1
2017-02-15T06:49:55.128Z,21.13
2017-02-15T06:50:55.685Z,21.13
2017-02-15T06:51:55.070Z,21.13
2017-02-15T06:52:54.703Z,21.06
2017-02-15T06:53:55.543Z,21.09
2017-02-15T06:54:55.539Z,21.13
2017-02-15T06:55:55.427Z,21.09
2017-02-15T06:56:54.801Z,21.04
2017-02-15T06:57:54.847Z,21.01
2017-02-15T06:58:55.672Z,21.09
2017-02-15T06:59:55.693Z,21.03
2017-02-15T07:00:55.575Z,20.98
2017-02-15T07:01:55.742Z,20.98
2017-02-15T07:02:55.359Z,21.06
2017-02-15T07:03:55.398Z,21.03
2017-02-15T07:04:55.019Z,21.09
2017-02-15T07:05:56.100Z,20.95
2017-02-15T07:06:55.862Z,21.07
2017-02-15T07:07:55.502Z,20.92
2017-02-15T07:08:55.510Z,21.09
2017-02-15T07:09:55.551Z,20.99
2017-02-15T07:10:55.580Z,20.97
2017-02-15T07:11:55.614Z,20.94
2017-02-15T07:12:56.029Z,20.94
2017-02-15T07:13:56.075Z,20.99
2017-02-15T07:14:55.694Z,20.95
2017-02-15T07:15:56.112Z,20.98
2017-02-15T07:16:55.736Z,20.99
2017-02-15T07:17:55.358Z,20.89
2017-02-15T07:18:55.426Z,20.87
2017-02-15T07:19:55.403Z,20.98
2017-02-15T07:20:55.436Z,20.98
2017-02-15T07:21:55.865Z,20.87
2017-02-15T07:22:55.494Z,21.04
2017-02-15T07:23:55.922Z,20.98
2017-02-15T07:24:56.343Z,20.92
2017-02-15T07:25:55.996Z,20.94
2017-02-15T07:26:55.991Z,21.01
2017-02-15T07:27:56.429Z,20.92
2017-02-15T07:28:56.438Z,20.94
2017-02-15T07:29:56.485Z,21.03
2017-02-15T07:30:56.135Z,21.04
2017-02-15T07:31:56.543Z,20.97
2017-02-15T07:32:56.142Z,21.09
2017-02-15T07:33:56.170Z,20.98
2017-02-15T07:34:56.210Z,20.95
2017-02-15T07:35:56.631Z,21.03
2017-02-15T07:36:56.111Z,21.04
2017-02-15T07:37:55.874Z,20.99
2017-02-15T07:38:56.299Z,21.04
2017-02-15T07:39:56.338Z,21.03
2017-02-15T07:40:55.975Z,21.07
2017-02-15T07:41:57.056Z,21.06
2017-02-15T07:42:56.413Z,21.09
2017-02-15T07:43:56.856Z,21.06
2017-02-15T07:44:56.869Z,21.07
2017-02-15T07:45:56.906Z,21.12
2017-02-15T07:46:56.375Z,21.03
2017-02-15T07:47:56.549Z,21.04
2017-02-15T07:48:56.577Z,21.07
2017-02-15T07:49:56.609Z,21.04
2017-02-15T07:50:56.639Z,21.12
2017-02-15T07:51:58.428Z,21.04
2017-02-15T07:52:56.292Z,21.12
2017-02-15T07:53:56.733Z,21.07
2017-02-15T07:54:56.748Z,21.07
2017-02-15T07:55:56.783Z,21.04
2017-02-15T07:56:56.630Z,21.09
2017-02-15T07:57:57.226Z,21.03
2017-02-15T07:58:56.847Z,21.04
2017-02-15T07:59:57.265Z,21.06
2017-02-15T08:00:57.322Z,21.03
2017-02-15T08:01:57.578Z,21.06
2017-02-15T08:02:56.954Z,21.06
2017-02-15T08:03:56.967Z,21.04
2017-02-15T08:04:57.001Z,21.04
2017-02-15T08:05:57.422Z,21.01
2017-02-15T08:06:57.700Z,21.06
2017-02-15T08:07:57.079Z,21.06
2017-02-15T08:08:57.095Z,21.1
2017-02-15T08:09:57.537Z,21.04
2017-02-15T08:10:57.565Z,21.07
2017-02-15T08:11:57.833Z,21.07
2017-02-15T08:12:57.622Z,21.06
2017-02-15T08:13:57.639Z,21.1
2017-02-15T08:14:56.863Z,21.04
2017-02-15T08:15:57.285Z,21.04
2017-02-15T08:16:57.561Z,21.06
2017-02-15T08:17:57.762Z,21.03
2017-02-15T08:18:57.361Z,21.07
2017-02-15T08:19:57.788Z,21.13
2017-02-15T08:20:57.441Z,21.04
2017-02-15T08:21:58.122Z,21.07
2017-02-15T08:22:57.474Z,21.03
2017-02-15T08:23:57.898Z,21.06
2017-02-15T08:24:57.932Z,21.1
2017-02-15T08:25:57.972Z,21.1
2017-02-15T08:26:57.572Z,21.07
2017-02-15T08:27:57.622Z,21.07
2017-02-15T08:28:58.030Z,21.06
2017-02-15T08:29:57.671Z,21.13
2017-02-15T08:30:57.699Z,21.14
2017-02-15T08:31:57.313Z,21.17
2017-02-15T08:32:58.138Z,21.28
2017-02-15T08:33:58.185Z,21.32
2017-02-15T08:34:57.387Z,21.59
2017-02-15T08:35:57.821Z,21.86
2017-02-15T08:36:57.835Z,22.03
2017-02-15T08:37:58.285Z,22.14
2017-02-15T08:38:58.305Z,22.37
2017-02-15T08:39:57.518Z,22.6
2017-02-15T08:40:57.966Z,22.67
2017-02-15T08:41:58.386Z,22.82
2017-02-15T08:42:57.612Z,22.97
2017-02-15T08:43:58.021Z,23.1
2017-02-15T08:44:58.058Z,23.17
2017-02-15T08:45:58.491Z,23.25
2017-02-15T08:46:57.716Z,23.38
2017-02-15T08:47:57.988Z,23.47
2017-02-15T08:48:58.588Z,23.5
2017-02-15T08:49:58.193Z,23.46
2017-02-15T08:50:58.631Z,23.38
2017-02-15T08:51:58.276Z,23.33
2017-02-15T08:52:58.928Z,23.13
2017-02-15T08:53:58.304Z,23.07
2017-02-15T08:54:57.937Z,22.91
2017-02-15T08:55:57.954Z,22.75
2017-02-15T08:56:58.379Z,22.72
2017-02-15T08:57:58.664Z,22.62
2017-02-15T08:58:58.864Z,22.54
2017-02-15T08:59:58.077Z,22.37
2017-02-15T09:00:58.493Z,22.42
2017-02-15T09:01:58.915Z,22.27
2017-02-15T09:02:58.819Z,22.28
2017-02-15T09:03:58.573Z,22.22
2017-02-15T09:04:59.020Z,22.14
2017-02-15T09:05:58.644Z,22.15
2017-02-15T09:06:58.266Z,22.07
2017-02-15T09:07:59.364Z,22.14
2017-02-15T09:08:58.337Z,22.07
2017-02-15T09:09:59.152Z,22.05
2017-02-15T09:10:59.587Z,21.96
2017-02-15T09:11:58.796Z,22.03
2017-02-15T09:12:58.674Z,22.03
2017-02-15T09:13:58.834Z,22.05
2017-02-15T09:14:59.507Z,21.94
2017-02-15T09:15:59.747Z,21.9
2017-02-15T09:16:58.983Z,21.9
2017-02-15T09:17:59.219Z,21.92
2017-02-15T09:18:59.483Z,21.98
2017-02-15T09:19:59.009Z,21.92
2017-02-15T09:20:58.825Z,21.91
2017-02-15T09:22:00.086Z,21.84
2017-02-15T09:22:59.342Z,21.94
2017-02-15T09:23:59.117Z,21.8
2017-02-15T09:24:58.743Z,21.79
2017-02-15T09:25:59.611Z,21.77
2017-02-15T09:26:58.789Z,21.79
2017-02-15T09:28:00.083Z,21.96
2017-02-15T09:28:59.331Z,21.79
2017-02-15T09:29:59.255Z,21.8
2017-02-15T09:30:59.756Z,21.77
2017-02-15T09:31:59.324Z,21.92
2017-02-15T09:33:00.014Z,21.8
2017-02-15T09:33:59.536Z,21.83
2017-02-15T09:35:00.351Z,21.83
2017-02-15T09:35:59.834Z,21.88
2017-02-15T09:37:00.035Z,21.75
2017-02-15T09:38:00.312Z,21.88
2017-02-15T09:38:59.646Z,21.82
2017-02-15T09:39:59.536Z,21.88
2017-02-15T09:40:59.592Z,21.86
2017-02-15T09:41:59.880Z,21.83
2017-02-15T09:43:00.086Z,21.79
2017-02-15T09:43:59.755Z,21.88
2017-02-15T09:45:00.082Z,21.91
2017-02-15T09:45:59.703Z,21.9
2017-02-15T09:47:00.271Z,21.88
2017-02-15T09:48:00.645Z,21.88
2017-02-15T09:49:00.316Z,22
2017-02-15T09:49:59.797Z,22.06
2017-02-15T09:51:00.265Z,22.05
2017-02-15T09:51:59.455Z,22.02
2017-02-15T09:53:00.756Z,22.12
2017-02-15T09:54:00.285Z,22.02
2017-02-15T09:55:00.715Z,22.09
2017-02-15T09:55:59.975Z,22.05
2017-02-15T09:57:00.002Z,22.12
2017-02-15T09:58:00.816Z,22.14
2017-02-15T09:58:59.640Z,22.14
2017-02-15T10:00:00.473Z,22.18
2017-02-15T10:01:00.625Z,22.18
2017-02-15T10:02:00.290Z,22.18
2017-02-15T10:03:00.838Z,22.24
2017-02-15T10:04:00.180Z,22.33
2017-02-15T10:05:00.646Z,22.31
2017-02-15T10:06:00.508Z,22.27
2017-02-15T10:07:00.480Z,22.28
2017-02-15T10:08:01.116Z,22.33
2017-02-15T10:09:01.243Z,22.42
2017-02-15T10:10:00.357Z,22.42
2017-02-15T10:11:00.781Z,22.43
2017-02-15T10:12:00.979Z,22.35
2017-02-15T10:13:01.748Z,22.4
2017-02-15T10:14:00.903Z,22.43
2017-02-15T10:15:00.883Z,22.4
2017-02-15T10:16:00.505Z,22.42
2017-02-15T10:17:00.529Z,22.54
2017-02-15T10:18:01.212Z,22.51
2017-02-15T10:19:01.313Z,22.57
2017-02-15T10:20:01.830Z,22.47
2017-02-15T10:21:01.056Z,22.61
2017-02-15T10:22:00.667Z,22.54
2017-02-15T10:23:01.375Z,22.64
2017-02-15T10:24:01.702Z,22.6
2017-02-15T10:25:00.817Z,22.55
2017-02-15T10:26:00.788Z,22.57
2017-02-15T10:27:01.283Z,22.61
2017-02-15T10:28:01.235Z,22.64
2017-02-15T10:29:01.444Z,22.67
2017-02-15T10:30:01.393Z,22.65
2017-02-15T10:31:01.137Z,22.61
2017-02-15T10:32:01.365Z,22.61
2017-02-15T10:33:01.371Z,22.61
2017-02-15T10:34:01.154Z,22.54
2017-02-15T10:35:01.421Z,22.62
2017-02-15T10:36:01.445Z,22.61
2017-02-15T10:37:01.388Z,22.64
2017-02-15T10:38:01.549Z,22.55
2017-02-15T10:39:01.512Z,22.61
2017-02-15T10:40:01.561Z,22.58
2017-02-15T10:41:00.951Z,22.58
2017-02-15T10:42:01.231Z,22.57
2017-02-15T10:43:01.242Z,22.62
2017-02-15T10:44:01.280Z,22.58
2017-02-15T10:45:01.294Z,22.57
2017-02-15T10:46:02.117Z,22.64
2017-02-15T10:47:01.382Z,22.64
2017-02-15T10:48:02.221Z,22.64
2017-02-15T10:49:02.533Z,22.61
2017-02-15T10:50:02.365Z,22.62
2017-02-15T10:51:01.845Z,22.65
2017-02-15T10:52:01.968Z,22.67
2017-02-15T10:53:01.117Z,22.6
2017-02-15T10:54:01.415Z,22.62
2017-02-15T10:55:01.989Z,22.6
2017-02-15T10:56:02.466Z,22.61
2017-02-15T10:57:01.633Z,22.6
2017-02-15T10:58:01.918Z,22.64
2017-02-15T10:59:01.947Z,22.73
2017-02-15T11:00:01.837Z,22.72
2017-02-15T11:01:02.305Z,22.65
2017-02-15T11:02:02.164Z,22.72
2017-02-15T11:03:02.192Z,22.68
2017-02-15T11:04:03.038Z,22.67
2017-02-15T11:05:02.627Z,22.77
2017-02-15T11:06:02.020Z,22.72
2017-02-15T11:07:02.000Z,22.61
2017-02-15T11:08:01.942Z,22.75
2017-02-15T11:09:02.796Z,22.75
2017-02-15T11:10:01.985Z,22.73
2017-02-15T11:11:02.019Z,22.7
2017-02-15T11:12:02.448Z,22.75
2017-02-15T11:13:02.634Z,22.77
2017-02-15T11:14:02.782Z,22.76
2017-02-15T11:15:02.445Z,22.75
2017-02-15T11:16:02.864Z,22.77
2017-02-15T11:17:02.966Z,22.75
2017-02-15T11:18:02.229Z,22.8
2017-02-15T11:19:03.187Z,22.83
2017-02-15T11:20:02.666Z,22.82
2017-02-15T11:21:02.275Z,22.8
2017-02-15T11:22:02.331Z,22.9
2017-02-15T11:23:02.356Z,22.85
2017-02-15T11:24:03.758Z,22.95
2017-02-15T11:25:03.076Z,22.94
2017-02-15T11:26:02.840Z,22.83
2017-02-15T11:27:02.856Z,22.97
2017-02-15T11:28:03.618Z,23
2017-02-15T11:29:02.921Z,23.04
2017-02-15T11:30:02.131Z,23.05
2017-02-15T11:31:02.963Z,23.09
2017-02-15T11:32:03.613Z,23.15
2017-02-15T11:33:02.245Z,23.09
2017-02-15T11:34:02.653Z,23.13
2017-02-15T11:35:03.076Z,23.15
2017-02-15T11:36:03.502Z,23.17
2017-02-15T11:37:02.336Z,23.15
2017-02-15T11:38:03.902Z,23.25
2017-02-15T11:39:03.209Z,23.31
2017-02-15T11:40:03.241Z,23.27
2017-02-15T11:41:02.546Z,23.32
2017-02-15T11:42:03.480Z,23.36
2017-02-15T11:43:02.725Z,23.35
2017-02-15T11:44:03.405Z,23.4
2017-02-15T11:45:02.985Z,23.46
2017-02-15T11:46:03.095Z,23.42
2017-02-15T11:47:02.999Z,23.46
2017-02-15T11:48:03.599Z,23.5
2017-02-15T11:49:03.623Z,23.51
2017-02-15T11:50:03.507Z,23.53
2017-02-15T11:51:03.535Z,23.54
2017-02-15T11:52:02.961Z,23.6
2017-02-15T11:53:03.024Z,23.63
2017-02-15T11:54:03.208Z,23.61
2017-02-15T11:55:03.643Z,23.7
2017-02-15T11:56:03.658Z,23.73
2017-02-15T11:57:03.316Z,23.69
2017-02-15T11:58:03.459Z,23.68
2017-02-15T11:59:03.352Z,23.76
2017-02-15T12:00:04.307Z,23.73
2017-02-15T12:01:04.062Z,23.72
2017-02-15T12:02:03.231Z,23.75
2017-02-15T12:03:03.729Z,23.83
2017-02-15T12:04:03.661Z,23.88
2017-02-15T12:05:03.127Z,23.87
2017-02-15T12:06:03.547Z,23.88
2017-02-15T12:07:03.583Z,23.97
2017-02-15T12:08:03.630Z,23.94
2017-02-15T12:09:03.632Z,23.97
2017-02-15T12:10:04.093Z,24
2017-02-15T12:11:04.124Z,24.09
2017-02-15T12:12:04.155Z,24.2
2017-02-15T12:13:03.417Z,24.13
2017-02-15T12:14:04.190Z,24.27
2017-02-15T12:15:03.825Z,24.32
2017-02-15T12:16:04.569Z,24.45
2017-02-15T12:17:04.509Z,24.57
2017-02-15T12:18:04.310Z,24.46
2017-02-15T12:19:03.533Z,24.61
2017-02-15T12:20:03.804Z,24.71
2017-02-15T12:21:04.416Z,24.78
2017-02-15T12:22:04.021Z,24.91
2017-02-15T12:23:04.052Z,24.93
2017-02-15T12:24:04.068Z,25.08
2017-02-15T12:25:04.749Z,25.18
2017-02-15T12:26:04.122Z,25.14
2017-02-15T12:27:04.234Z,25.2
2017-02-15T12:28:04.371Z,25.36
2017-02-15T12:29:04.285Z,25.36
2017-02-15T12:30:04.624Z,25.35
2017-02-15T12:31:03.882Z,25.35
2017-02-15T12:32:04.385Z,25.43
2017-02-15T12:33:05.008Z,25.58
2017-02-15T12:34:04.832Z,25.54
2017-02-15T12:35:05.105Z,25.62
2017-02-15T12:36:04.557Z,25.7
2017-02-15T12:37:05.114Z,25.79
2017-02-15T12:38:04.924Z,25.77
2017-02-15T12:39:05.154Z,25.88
2017-02-15T12:40:05.188Z,25.91
2017-02-15T12:41:04.173Z,25.91
2017-02-15T12:42:04.781Z,26.01
2017-02-15T12:43:04.649Z,26.02
2017-02-15T12:44:04.243Z,26.07
2017-02-15T12:45:04.960Z,26.13
2017-02-15T12:46:04.735Z,26.09
2017-02-15T12:47:05.877Z,26.13
2017-02-15T12:48:05.198Z,26.18
2017-02-15T12:49:05.047Z,26.2
2017-02-15T12:50:05.235Z,26.18
2017-02-15T12:51:04.899Z,26.21
2017-02-15T12:52:04.658Z,26.29
2017-02-15T12:53:04.630Z,26.26
2017-02-15T12:54:04.954Z,26.29
2017-02-15T12:55:05.647Z,26.33